RYR58QK LEBL-LIMC
Flight info
| Callsign | RYR58QK |
|---|---|
| Flight time | 1h 4m |
| Altitude | 30000 |
| Route | AGENA DCT BODEQ DCT LUMAS DCT UNANA DCT STP DCT RAPED DCT PIGOS DCT EKSID DCT NOSTA DCT EGHIN DCT ANAKI/N0383F180 P860 DEVOX |
| Aircraft | B738/M-SDE2E3FGHIRWXY/LB1 |
Departure
| Time | 2026-05-06 22:01 |
|---|---|
| Airport | Josep Tarradellas Barcelona-El Prat Airport (LEBL) |
Arrival
| Time | 2026-05-06 23:06 |
|---|---|
| Airport | Milan Malpensa International Airport (LIMC) |
| Time | Latitude | Longitude | Altitude | Speed | Heading |
|---|---|---|---|---|---|
| 2026-05-06 21:30 | 41.30142 | 2.07656 | 22 ft | 0 kts | 27° |
| 2026-05-06 21:43 | 41.30125 | 2.07644 | 22 ft | 4 kts | 28° |
| 2026-05-06 21:43 | 41.30101 | 2.07628 | 21 ft | 4 kts | 21° |
| 2026-05-06 21:43 | 41.30076 | 2.07622 | 20 ft | 4 kts | 345° |
| 2026-05-06 21:44 | 41.30053 | 2.07634 | 21 ft | 4 kts | 325° |
| 2026-05-06 21:44 | 41.30036 | 2.07658 | 18 ft | 4 kts | 283° |
| 2026-05-06 21:44 | 41.30038 | 2.07691 | 19 ft | 4 kts | 246° |
| 2026-05-06 21:44 | 41.30051 | 2.07723 | 20 ft | 4 kts | 240° |
| 2026-05-06 21:45 | 41.30057 | 2.07737 | 19 ft | 1 kts | 245° |
| 2026-05-06 21:48 | 41.30055 | 2.07732 | 20 ft | 3 kts | 245° |
| 2026-05-06 21:48 | 41.30035 | 2.07689 | 18 ft | 8 kts | 215° |
| 2026-05-06 21:49 | 41.29964 | 2.07714 | 15 ft | 13 kts | 156° |
| 2026-05-06 21:49 | 41.29899 | 2.07682 | 15 ft | 11 kts | 243° |
| 2026-05-06 21:49 | 41.29867 | 2.07587 | 15 ft | 11 kts | 245° |
| 2026-05-06 21:49 | 41.29831 | 2.07487 | 16 ft | 13 kts | 245° |
| 2026-05-06 21:50 | 41.29791 | 2.07367 | 17 ft | 16 kts | 246° |
| 2026-05-06 21:50 | 41.29738 | 2.07214 | 15 ft | 21 kts | 245° |
| 2026-05-06 21:50 | 41.29667 | 2.07007 | 15 ft | 28 kts | 245° |
| 2026-05-06 21:50 | 41.29584 | 2.06765 | 15 ft | 26 kts | 245° |
| 2026-05-06 21:51 | 41.29514 | 2.06560 | 14 ft | 23 kts | 245° |
| 2026-05-06 21:51 | 41.29448 | 2.06370 | 14 ft | 22 kts | 245° |
| 2026-05-06 21:51 | 41.29403 | 2.06249 | 15 ft | 9 kts | 231° |
| 2026-05-06 21:51 | 41.29347 | 2.06225 | 15 ft | 9 kts | 163° |
| 2026-05-06 21:52 | 41.29289 | 2.06258 | 14 ft | 9 kts | 155° |
| 2026-05-06 21:52 | 41.29227 | 2.06295 | 15 ft | 10 kts | 156° |
| 2026-05-06 21:52 | 41.29160 | 2.06335 | 14 ft | 12 kts | 155° |
| 2026-05-06 21:52 | 41.29095 | 2.06445 | 14 ft | 18 kts | 111° |
| 2026-05-06 21:53 | 41.29085 | 2.06574 | 15 ft | 13 kts | 71° |
| 2026-05-06 21:53 | 41.29118 | 2.06684 | 15 ft | 13 kts | 66° |
| 2026-05-06 21:53 | 41.29157 | 2.06787 | 16 ft | 12 kts | 63° |
| 2026-05-06 21:53 | 41.29192 | 2.06889 | 15 ft | 12 kts | 65° |
| 2026-05-06 21:54 | 41.29233 | 2.07008 | 15 ft | 17 kts | 66° |
| 2026-05-06 21:54 | 41.29287 | 2.07168 | 16 ft | 20 kts | 66° |
| 2026-05-06 21:54 | 41.29344 | 2.07335 | 16 ft | 20 kts | 65° |
| 2026-05-06 21:54 | 41.29402 | 2.07504 | 16 ft | 21 kts | 65° |
| 2026-05-06 21:55 | 41.29466 | 2.07689 | 18 ft | 23 kts | 65° |
| 2026-05-06 21:55 | 41.29535 | 2.07890 | 16 ft | 24 kts | 65° |
| 2026-05-06 21:55 | 41.29599 | 2.08079 | 17 ft | 20 kts | 65° |
| 2026-05-06 21:55 | 41.29626 | 2.08203 | 15 ft | 11 kts | 106° |
| 2026-05-06 21:56 | 41.29560 | 2.08262 | 15 ft | 12 kts | 155° |
| 2026-05-06 21:56 | 41.29480 | 2.08311 | 17 ft | 14 kts | 156° |
| 2026-05-06 21:56 | 41.29366 | 2.08378 | 18 ft | 21 kts | 156° |
| 2026-05-06 21:56 | 41.29231 | 2.08449 | 22 ft | 17 kts | 174° |
| 2026-05-06 21:57 | 41.29116 | 2.08407 | 18 ft | 17 kts | 199° |
| 2026-05-06 21:57 | 41.29007 | 2.08356 | 18 ft | 16 kts | 198° |
| 2026-05-06 21:57 | 41.28901 | 2.08308 | 17 ft | 16 kts | 199° |
| 2026-05-06 21:57 | 41.28794 | 2.08259 | 15 ft | 17 kts | 199° |
| 2026-05-06 21:58 | 41.28686 | 2.08198 | 16 ft | 17 kts | 224° |
| 2026-05-06 21:58 | 41.28633 | 2.08059 | 16 ft | 17 kts | 246° |
| 2026-05-06 21:58 | 41.28585 | 2.07921 | 15 ft | 16 kts | 245° |
| 2026-05-06 21:58 | 41.28540 | 2.07790 | 15 ft | 16 kts | 245° |
| 2026-05-06 21:59 | 41.28491 | 2.07647 | 17 ft | 18 kts | 245° |
| 2026-05-06 21:59 | 41.28446 | 2.07516 | 16 ft | 13 kts | 245° |
| 2026-05-06 21:59 | 41.28371 | 2.07445 | 15 ft | 15 kts | 203° |
| 2026-05-06 21:59 | 41.28285 | 2.07403 | 15 ft | 7 kts | 192° |
| 2026-05-06 22:00 | 41.28241 | 2.07427 | 18 ft | 7 kts | 117° |
| 2026-05-06 22:00 | 41.28249 | 2.07488 | 18 ft | 1 kts | 68° |
| 2026-05-06 22:00 | 41.28252 | 2.07498 | 18 ft | 12 kts | 65° |
| 2026-05-06 22:01 | 41.28403 | 2.07926 | 21 ft | 90 kts | 65° |
| 2026-05-06 22:01 | 41.28761 | 2.08972 | 22 ft | 156 kts | 65° |
| 2026-05-06 22:01 | 41.29243 | 2.10377 | 564 ft | 170 kts | 65° |
| 2026-05-06 22:01 | 41.29496 | 2.11926 | 1338 ft | 179 kts | 96° |
| 2026-05-06 22:02 | 41.29287 | 2.13597 | 2166 ft | 184 kts | 101° |
| 2026-05-06 22:02 | 41.29071 | 2.15351 | 2497 ft | 204 kts | 99° |
| 2026-05-06 22:02 | 41.28859 | 2.17268 | 2860 ft | 214 kts | 99° |
| 2026-05-06 22:02 | 41.28653 | 2.19255 | 3331 ft | 218 kts | 98° |
| 2026-05-06 22:03 | 41.28547 | 2.21293 | 3703 ft | 230 kts | 82° |
| 2026-05-06 22:03 | 41.28979 | 2.23426 | 3966 ft | 245 kts | 72° |
| 2026-05-06 22:03 | 41.29512 | 2.25677 | 4235 ft | 265 kts | 73° |
| 2026-05-06 22:03 | 41.30067 | 2.28057 | 4832 ft | 272 kts | 73° |
| 2026-05-06 22:04 | 41.30624 | 2.30483 | 5530 ft | 275 kts | 73° |
| 2026-05-06 22:04 | 41.31175 | 2.32927 | 6263 ft | 277 kts | 73° |
| 2026-05-06 22:04 | 41.31726 | 2.35401 | 6954 ft | 281 kts | 73° |
| 2026-05-06 22:04 | 41.32280 | 2.37910 | 7645 ft | 284 kts | 73° |
| 2026-05-06 22:05 | 41.32838 | 2.40458 | 8352 ft | 288 kts | 73° |
| 2026-05-06 22:05 | 41.33392 | 2.43004 | 9068 ft | 292 kts | 73° |
| 2026-05-06 22:05 | 41.33960 | 2.45621 | 9803 ft | 296 kts | 73° |
| 2026-05-06 22:05 | 41.34536 | 2.48286 | 10384 ft | 306 kts | 73° |
| 2026-05-06 22:06 | 41.35147 | 2.51116 | 10553 ft | 330 kts | 73° |
| 2026-05-06 22:06 | 41.35802 | 2.54157 | 10727 ft | 352 kts | 73° |
| 2026-05-06 22:06 | 41.36491 | 2.57366 | 11037 ft | 367 kts | 73° |
| 2026-05-06 22:06 | 41.37197 | 2.60663 | 11638 ft | 373 kts | 73° |
| 2026-05-06 22:07 | 41.37910 | 2.63996 | 12352 ft | 376 kts | 73° |
| 2026-05-06 22:07 | 41.38628 | 2.67361 | 13063 ft | 380 kts | 73° |
| 2026-05-06 22:07 | 41.39345 | 2.70725 | 13743 ft | 385 kts | 73° |
| 2026-05-06 22:07 | 41.40079 | 2.74176 | 14378 ft | 389 kts | 73° |
| 2026-05-06 22:08 | 41.40820 | 2.77662 | 15046 ft | 393 kts | 73° |
| 2026-05-06 22:08 | 41.41567 | 2.81185 | 15713 ft | 397 kts | 73° |
| 2026-05-06 22:08 | 41.42322 | 2.84752 | 16350 ft | 402 kts | 73° |
| 2026-05-06 22:08 | 41.43083 | 2.88350 | 17004 ft | 406 kts | 74° |
| 2026-05-06 22:09 | 41.43853 | 2.91999 | 17638 ft | 411 kts | 74° |
| 2026-05-06 22:09 | 41.44628 | 2.95682 | 18263 ft | 415 kts | 74° |
| 2026-05-06 22:09 | 41.45412 | 2.99409 | 18775 ft | 421 kts | 74° |
| 2026-05-06 22:09 | 41.46206 | 3.03190 | 19251 ft | 426 kts | 74° |
| 2026-05-06 22:10 | 41.47008 | 3.07020 | 19724 ft | 432 kts | 74° |
| 2026-05-06 22:10 | 41.47822 | 3.10909 | 20207 ft | 437 kts | 74° |
| 2026-05-06 22:10 | 41.48644 | 3.14842 | 20661 ft | 443 kts | 74° |
| 2026-05-06 22:10 | 41.49472 | 3.18820 | 21135 ft | 448 kts | 75° |
| 2026-05-06 22:11 | 41.50232 | 3.22818 | 21602 ft | 453 kts | 77° |
| 2026-05-06 22:11 | 41.50918 | 3.26953 | 22046 ft | 458 kts | 78° |
| 2026-05-06 22:11 | 41.51583 | 3.31137 | 22470 ft | 463 kts | 78° |
| 2026-05-06 22:11 | 41.52260 | 3.35372 | 22902 ft | 468 kts | 78° |
| 2026-05-06 22:12 | 41.52957 | 3.39637 | 23336 ft | 473 kts | 78° |
| 2026-05-06 22:12 | 41.53675 | 3.43954 | 23728 ft | 478 kts | 78° |
| 2026-05-06 22:12 | 41.54399 | 3.48299 | 24082 ft | 482 kts | 78° |
| 2026-05-06 22:12 | 41.55128 | 3.52683 | 24454 ft | 485 kts | 78° |
| 2026-05-06 22:13 | 41.55851 | 3.57047 | 24823 ft | 488 kts | 78° |
| 2026-05-06 22:13 | 41.56586 | 3.61493 | 25185 ft | 492 kts | 78° |
| 2026-05-06 22:13 | 41.57323 | 3.65967 | 25534 ft | 495 kts | 79° |
| 2026-05-06 22:13 | 41.58065 | 3.70483 | 25878 ft | 499 kts | 79° |
| 2026-05-06 22:14 | 41.58809 | 3.75025 | 26219 ft | 502 kts | 79° |
| 2026-05-06 22:14 | 41.59557 | 3.79594 | 26548 ft | 506 kts | 79° |
| 2026-05-06 22:14 | 41.60309 | 3.84208 | 26852 ft | 509 kts | 79° |
| 2026-05-06 22:14 | 41.61063 | 3.88851 | 27163 ft | 513 kts | 79° |
| 2026-05-06 22:15 | 41.61816 | 3.93531 | 27479 ft | 516 kts | 79° |
| 2026-05-06 22:15 | 41.62569 | 3.98235 | 27788 ft | 518 kts | 79° |
| 2026-05-06 22:15 | 41.63322 | 4.02959 | 28111 ft | 521 kts | 79° |
| 2026-05-06 22:15 | 41.64067 | 4.07644 | 28415 ft | 524 kts | 79° |
| 2026-05-06 22:16 | 41.64825 | 4.12417 | 28734 ft | 526 kts | 79° |
| 2026-05-06 22:16 | 41.65583 | 4.17200 | 29139 ft | 526 kts | 79° |
| 2026-05-06 22:16 | 41.66339 | 4.21985 | 29621 ft | 524 kts | 80° |
| 2026-05-06 22:16 | 41.67092 | 4.26761 | 30033 ft | 524 kts | 80° |
| 2026-05-06 22:17 | 41.68591 | 4.36312 | 30008 ft | 522 kts | 80° |
| 2026-05-06 22:17 | 41.70065 | 4.45764 | 30015 ft | 521 kts | 80° |
| 2026-05-06 22:18 | 41.71538 | 4.55259 | 30009 ft | 521 kts | 80° |
| 2026-05-06 22:18 | 41.73588 | 4.64613 | 30012 ft | 525 kts | 64° |
| 2026-05-06 22:19 | 41.77615 | 4.72727 | 29992 ft | 523 kts | 43° |
| 2026-05-06 22:19 | 41.82809 | 4.79520 | 30006 ft | 521 kts | 40° |
| 2026-05-06 22:20 | 41.88030 | 4.86210 | 29997 ft | 522 kts | 41° |
| 2026-05-06 22:20 | 41.93243 | 4.93028 | 30005 ft | 522 kts | 41° |
| 2026-05-06 22:21 | 41.98419 | 4.99897 | 30009 ft | 522 kts | 42° |
| 2026-05-06 22:21 | 42.03580 | 5.06782 | 30006 ft | 522 kts | 42° |
| 2026-05-06 22:22 | 42.08704 | 5.13627 | 29998 ft | 521 kts | 42° |
| 2026-05-06 22:22 | 42.13839 | 5.20497 | 30004 ft | 519 kts | 42° |
| 2026-05-06 22:23 | 42.18962 | 5.27365 | 29999 ft | 519 kts | 42° |
| 2026-05-06 22:23 | 42.24077 | 5.34240 | 29996 ft | 518 kts | 42° |
| 2026-05-06 22:24 | 42.29186 | 5.41124 | 30003 ft | 518 kts | 43° |
| 2026-05-06 22:24 | 42.34258 | 5.47974 | 29995 ft | 519 kts | 43° |
| 2026-05-06 22:25 | 42.39363 | 5.54885 | 29994 ft | 519 kts | 43° |
| 2026-05-06 22:25 | 42.44474 | 5.61822 | 30000 ft | 520 kts | 43° |
| 2026-05-06 22:26 | 42.49585 | 5.68777 | 29989 ft | 520 kts | 43° |
| 2026-05-06 22:26 | 42.54663 | 5.75702 | 29992 ft | 520 kts | 43° |
| 2026-05-06 22:27 | 42.59770 | 5.82686 | 29979 ft | 521 kts | 43° |
| 2026-05-06 22:27 | 42.64870 | 5.89677 | 29990 ft | 520 kts | 43° |
| 2026-05-06 22:28 | 42.69959 | 5.96670 | 29984 ft | 520 kts | 43° |
| 2026-05-06 22:28 | 42.75043 | 6.03674 | 29984 ft | 520 kts | 43° |
| 2026-05-06 22:29 | 42.80123 | 6.10691 | 29975 ft | 520 kts | 44° |
| 2026-05-06 22:29 | 42.85194 | 6.17700 | 29982 ft | 519 kts | 43° |
| 2026-05-06 22:30 | 42.90568 | 6.24178 | 29990 ft | 517 kts | 37° |
| 2026-05-06 22:30 | 42.96133 | 6.30420 | 29984 ft | 518 kts | 37° |
| 2026-05-06 22:31 | 43.01669 | 6.36711 | 29987 ft | 518 kts | 38° |
| 2026-05-06 22:31 | 43.07173 | 6.43072 | 29981 ft | 518 kts | 38° |
| 2026-05-06 22:32 | 43.12671 | 6.49460 | 29968 ft | 518 kts | 38° |
| 2026-05-06 22:32 | 43.18166 | 6.55848 | 29961 ft | 517 kts | 38° |
| 2026-05-06 22:33 | 43.23348 | 6.62615 | 29936 ft | 520 kts | 51° |
| 2026-05-06 22:33 | 43.27577 | 6.70649 | 29953 ft | 519 kts | 55° |
| 2026-05-06 22:34 | 43.31739 | 6.78756 | 29924 ft | 519 kts | 54° |
| 2026-05-06 22:34 | 43.35975 | 6.86793 | 29925 ft | 519 kts | 54° |
| 2026-05-06 22:35 | 43.39497 | 6.93471 | 29913 ft | 518 kts | 54° |
| 2026-05-06 22:35 | 43.44403 | 7.02842 | 29912 ft | 518 kts | 54° |
| 2026-05-06 22:36 | 43.47896 | 7.09537 | 29912 ft | 518 kts | 55° |
| 2026-05-06 22:36 | 43.52092 | 7.17597 | 29912 ft | 517 kts | 55° |
| 2026-05-06 22:37 | 43.56276 | 7.25653 | 29910 ft | 517 kts | 55° |
| 2026-05-06 22:37 | 43.60459 | 7.33727 | 29911 ft | 517 kts | 55° |
| 2026-05-06 22:38 | 43.64636 | 7.41808 | 29905 ft | 517 kts | 55° |
| 2026-05-06 22:38 | 43.68819 | 7.49912 | 29903 ft | 517 kts | 56° |
| 2026-05-06 22:39 | 43.72992 | 7.58021 | 29898 ft | 517 kts | 56° |
| 2026-05-06 22:39 | 43.77126 | 7.66085 | 29901 ft | 517 kts | 56° |
| 2026-05-06 22:40 | 43.81259 | 7.74228 | 29897 ft | 517 kts | 56° |
| 2026-05-06 22:40 | 43.85410 | 7.82377 | 29912 ft | 516 kts | 56° |
| 2026-05-06 22:41 | 43.89680 | 7.90362 | 29799 ft | 510 kts | 49° |
| 2026-05-06 22:41 | 43.92177 | 7.93712 | 29217 ft | 504 kts | 38° |
| 2026-05-06 22:41 | 43.94977 | 7.96652 | 28423 ft | 504 kts | 35° |
| 2026-05-06 22:42 | 43.97826 | 7.99513 | 27481 ft | 507 kts | 35° |
| 2026-05-06 22:42 | 44.00707 | 8.02385 | 26482 ft | 511 kts | 35° |
| 2026-05-06 22:42 | 44.03585 | 8.05279 | 25768 ft | 508 kts | 36° |
| 2026-05-06 22:42 | 44.06423 | 8.08169 | 25216 ft | 502 kts | 36° |
| 2026-05-06 22:43 | 44.09211 | 8.11042 | 24678 ft | 495 kts | 36° |
| 2026-05-06 22:43 | 44.11959 | 8.13895 | 24118 ft | 491 kts | 37° |
| 2026-05-06 22:43 | 44.14680 | 8.16732 | 23530 ft | 486 kts | 37° |
| 2026-05-06 22:43 | 44.17337 | 8.19510 | 22922 ft | 481 kts | 37° |
| 2026-05-06 22:44 | 44.19997 | 8.22292 | 22359 ft | 473 kts | 37° |
| 2026-05-06 22:44 | 44.22620 | 8.25039 | 21720 ft | 469 kts | 37° |
| 2026-05-06 22:44 | 44.25217 | 8.27759 | 21114 ft | 465 kts | 37° |
| 2026-05-06 22:44 | 44.27785 | 8.30450 | 20556 ft | 459 kts | 37° |
| 2026-05-06 22:45 | 44.30321 | 8.33110 | 20033 ft | 453 kts | 37° |
| 2026-05-06 22:45 | 44.32826 | 8.35740 | 19487 ft | 448 kts | 37° |
| 2026-05-06 22:45 | 44.35309 | 8.38351 | 18951 ft | 444 kts | 37° |
| 2026-05-06 22:45 | 44.37768 | 8.40939 | 18378 ft | 441 kts | 37° |
| 2026-05-06 22:46 | 44.40212 | 8.43513 | 17698 ft | 438 kts | 37° |
| 2026-05-06 22:46 | 44.42644 | 8.46079 | 16994 ft | 436 kts | 37° |
| 2026-05-06 22:46 | 44.45023 | 8.48591 | 16341 ft | 433 kts | 37° |
| 2026-05-06 22:46 | 44.47419 | 8.51124 | 15677 ft | 426 kts | 37° |
| 2026-05-06 22:47 | 44.49754 | 8.53595 | 15026 ft | 415 kts | 37° |
| 2026-05-06 22:47 | 44.52036 | 8.56013 | 14389 ft | 407 kts | 37° |
| 2026-05-06 22:47 | 44.54285 | 8.58397 | 13767 ft | 402 kts | 36° |
| 2026-05-06 22:47 | 44.56497 | 8.60745 | 13086 ft | 397 kts | 37° |
| 2026-05-06 22:48 | 44.58686 | 8.63070 | 12419 ft | 390 kts | 37° |
| 2026-05-06 22:48 | 44.60813 | 8.65337 | 11796 ft | 379 kts | 37° |
| 2026-05-06 22:48 | 44.62870 | 8.67562 | 11275 ft | 367 kts | 37° |
| 2026-05-06 22:48 | 44.64857 | 8.69721 | 10888 ft | 352 kts | 37° |
| 2026-05-06 22:49 | 44.66721 | 8.71753 | 10628 ft | 336 kts | 37° |
| 2026-05-06 22:49 | 44.68544 | 8.73677 | 10510 ft | 317 kts | 36° |
| 2026-05-06 22:49 | 44.70415 | 8.75128 | 10371 ft | 299 kts | 17° |
| 2026-05-06 22:49 | 44.72369 | 8.75948 | 10075 ft | 290 kts | 14° |
| 2026-05-06 22:50 | 44.74330 | 8.76719 | 9691 ft | 292 kts | 14° |
| 2026-05-06 22:50 | 44.76276 | 8.77483 | 9420 ft | 290 kts | 14° |
| 2026-05-06 22:50 | 44.78213 | 8.78252 | 9118 ft | 288 kts | 14° |
| 2026-05-06 22:50 | 44.80139 | 8.79024 | 8807 ft | 287 kts | 14° |
| 2026-05-06 22:51 | 44.82061 | 8.79802 | 8499 ft | 286 kts | 15° |
| 2026-05-06 22:51 | 44.83970 | 8.80578 | 8206 ft | 285 kts | 15° |
| 2026-05-06 22:51 | 44.85872 | 8.81354 | 7898 ft | 285 kts | 15° |
| 2026-05-06 22:51 | 44.87784 | 8.82136 | 7512 ft | 285 kts | 15° |
| 2026-05-06 22:52 | 44.89678 | 8.82913 | 7137 ft | 281 kts | 15° |
| 2026-05-06 22:52 | 44.91519 | 8.83668 | 6763 ft | 277 kts | 15° |
| 2026-05-06 22:52 | 44.93365 | 8.84427 | 6407 ft | 276 kts | 15° |
| 2026-05-06 22:52 | 44.95206 | 8.85184 | 6027 ft | 274 kts | 15° |
| 2026-05-06 22:53 | 44.97037 | 8.85937 | 5665 ft | 274 kts | 15° |
| 2026-05-06 22:53 | 44.98868 | 8.86690 | 5351 ft | 275 kts | 15° |
| 2026-05-06 22:53 | 45.00674 | 8.87435 | 5232 ft | 263 kts | 15° |
| 2026-05-06 22:53 | 45.02385 | 8.88141 | 5107 ft | 250 kts | 16° |
| 2026-05-06 22:54 | 45.04022 | 8.88755 | 4964 ft | 237 kts | 5° |
| 2026-05-06 22:54 | 45.05599 | 8.88533 | 4918 ft | 225 kts | 346° |
| 2026-05-06 22:54 | 45.07127 | 8.88101 | 4895 ft | 221 kts | 347° |
| 2026-05-06 22:54 | 45.08609 | 8.87702 | 4863 ft | 214 kts | 347° |
| 2026-05-06 22:55 | 45.10047 | 8.87315 | 4794 ft | 212 kts | 347° |
| 2026-05-06 22:55 | 45.11491 | 8.86925 | 4732 ft | 210 kts | 347° |
| 2026-05-06 22:55 | 45.12917 | 8.86539 | 4688 ft | 207 kts | 347° |
| 2026-05-06 22:55 | 45.14331 | 8.86156 | 4648 ft | 207 kts | 347° |
| 2026-05-06 22:56 | 45.15752 | 8.85770 | 4627 ft | 207 kts | 347° |
| 2026-05-06 22:56 | 45.17161 | 8.85387 | 4593 ft | 205 kts | 347° |
| 2026-05-06 22:56 | 45.18557 | 8.85008 | 4529 ft | 203 kts | 347° |
| 2026-05-06 22:56 | 45.19942 | 8.84632 | 4482 ft | 202 kts | 348° |
| 2026-05-06 22:57 | 45.21323 | 8.84256 | 4441 ft | 202 kts | 347° |
| 2026-05-06 22:57 | 45.22699 | 8.83881 | 4381 ft | 201 kts | 348° |
| 2026-05-06 22:57 | 45.24075 | 8.83507 | 4361 ft | 201 kts | 348° |
| 2026-05-06 22:57 | 45.25451 | 8.83132 | 4346 ft | 203 kts | 348° |
| 2026-05-06 22:58 | 45.26751 | 8.82777 | 4302 ft | 203 kts | 348° |
| 2026-05-06 22:58 | 45.28137 | 8.82399 | 4262 ft | 202 kts | 348° |
| 2026-05-06 22:58 | 45.29499 | 8.82028 | 4213 ft | 201 kts | 348° |
| 2026-05-06 22:58 | 45.30872 | 8.81655 | 4179 ft | 200 kts | 348° |
| 2026-05-06 22:59 | 45.32240 | 8.81283 | 4139 ft | 200 kts | 348° |
| 2026-05-06 22:59 | 45.33609 | 8.80910 | 4093 ft | 200 kts | 348° |
| 2026-05-06 22:59 | 45.34980 | 8.80537 | 4044 ft | 201 kts | 348° |
| 2026-05-06 22:59 | 45.36354 | 8.80162 | 4006 ft | 201 kts | 348° |
| 2026-05-06 23:00 | 45.37728 | 8.79866 | 3920 ft | 197 kts | 356° |
| 2026-05-06 23:00 | 45.39074 | 8.79735 | 3808 ft | 190 kts | 355° |
| 2026-05-06 23:00 | 45.40369 | 8.79514 | 3709 ft | 185 kts | 351° |
| 2026-05-06 23:00 | 45.41635 | 8.79216 | 3613 ft | 184 kts | 349° |
| 2026-05-06 23:01 | 45.42896 | 8.78885 | 3542 ft | 184 kts | 349° |
| 2026-05-06 23:01 | 45.44159 | 8.78543 | 3457 ft | 184 kts | 349° |
| 2026-05-06 23:01 | 45.45403 | 8.78203 | 3354 ft | 185 kts | 349° |
| 2026-05-06 23:01 | 45.46660 | 8.77857 | 3247 ft | 183 kts | 349° |
| 2026-05-06 23:02 | 45.47904 | 8.77515 | 3153 ft | 183 kts | 349° |
| 2026-05-06 23:02 | 45.49139 | 8.77176 | 3040 ft | 178 kts | 350° |
| 2026-05-06 23:02 | 45.50330 | 8.76861 | 2932 ft | 172 kts | 350° |
| 2026-05-06 23:02 | 45.51497 | 8.76544 | 2728 ft | 170 kts | 350° |
| 2026-05-06 23:03 | 45.52655 | 8.76223 | 2527 ft | 168 kts | 350° |
| 2026-05-06 23:03 | 45.53775 | 8.75913 | 2275 ft | 160 kts | 351° |
| 2026-05-06 23:03 | 45.54838 | 8.75617 | 2066 ft | 153 kts | 351° |
| 2026-05-06 23:03 | 45.55879 | 8.75329 | 1878 ft | 153 kts | 351° |
| 2026-05-06 23:04 | 45.56930 | 8.75038 | 1682 ft | 153 kts | 351° |
| 2026-05-06 23:04 | 45.57964 | 8.74751 | 1460 ft | 147 kts | 350° |
| 2026-05-06 23:04 | 45.58945 | 8.74479 | 1270 ft | 143 kts | 349° |
| 2026-05-06 23:04 | 45.59909 | 8.74210 | 1082 ft | 140 kts | 349° |
| 2026-05-06 23:05 | 45.60860 | 8.73949 | 937 ft | 140 kts | 348° |
| 2026-05-06 23:05 | 45.61817 | 8.73675 | 754 ft | 137 kts | 349° |
| 2026-05-06 23:05 | 45.62664 | 8.73446 | 738 ft | 106 kts | 349° |
| 2026-05-06 23:05 | 45.63240 | 8.73288 | 735 ft | 62 kts | 349° |
| 2026-05-06 23:06 | 45.63520 | 8.73210 | 738 ft | 23 kts | 345° |
| 2026-05-06 23:06 | 45.63684 | 8.73101 | 738 ft | 26 kts | 326° |
| 2026-05-06 23:06 | 45.63807 | 8.72928 | 735 ft | 24 kts | 305° |
| 2026-05-06 23:06 | 45.63895 | 8.72747 | 735 ft | 13 kts | 304° |
| 2026-05-06 23:07 | 45.63940 | 8.72650 | 735 ft | 11 kts | 303° |
| 2026-05-06 23:07 | 45.63954 | 8.72544 | 735 ft | 11 kts | 264° |
| 2026-05-06 23:07 | 45.63939 | 8.72423 | 735 ft | 14 kts | 258° |
| 2026-05-06 23:07 | 45.63917 | 8.72267 | 736 ft | 18 kts | 261° |
| 2026-05-06 23:08 | 45.63911 | 8.72073 | 737 ft | 21 kts | 268° |
| 2026-05-06 23:08 | 45.63881 | 8.71873 | 736 ft | 21 kts | 236° |
| 2026-05-06 23:08 | 45.63754 | 8.71838 | 736 ft | 20 kts | 169° |
| 2026-05-06 23:08 | 45.63620 | 8.71876 | 736 ft | 19 kts | 168° |
| 2026-05-06 23:09 | 45.63490 | 8.71910 | 736 ft | 19 kts | 170° |
| 2026-05-06 23:09 | 45.63364 | 8.71944 | 736 ft | 18 kts | 169° |
| 2026-05-06 23:09 | 45.63272 | 8.71969 | 736 ft | 13 kts | 169° |
| 2026-05-06 23:09 | 45.63187 | 8.71993 | 736 ft | 12 kts | 169° |
| 2026-05-06 23:10 | 45.63103 | 8.72017 | 736 ft | 12 kts | 168° |
| 2026-05-06 23:10 | 45.63023 | 8.72026 | 736 ft | 12 kts | 202° |
| 2026-05-06 23:10 | 45.62988 | 8.71927 | 735 ft | 11 kts | 261° |
| 2026-05-06 23:10 | 45.62973 | 8.71816 | 735 ft | 11 kts | 258° |
| 2026-05-06 23:11 | 45.62924 | 8.71753 | 735 ft | 11 kts | 171° |
| 2026-05-06 23:11 | 45.62879 | 8.71767 | 735 ft | 4 kts | 168° |
| 2026-05-06 23:11 | 45.62851 | 8.71776 | 735 ft | 4 kts | 168° |
| 2026-05-06 23:11 | 45.62836 | 8.71804 | 735 ft | 4 kts | 85° |
| 2026-05-06 23:12 | 45.62842 | 8.71843 | 735 ft | 4 kts | 78° |
| 2026-05-06 23:12 | 45.62847 | 8.71876 | 735 ft | 1 kts | 79° |
| 2026-05-06 23:12 | 45.62847 | 8.71881 | 735 ft | 0 kts | 79° |